Time;durP1;ratioP1;P1;durP2;ratioP2;P2;SDS_P1;SDS_P2;PMS_P1;PMS_P2;Temp;Humidity;BMP_temperature;BMP_pressure;BME280_temperature;BME280_humidity;BME280_pressure;Samples;Min_cycle;Max_cycle;Signal;HPM_P1;HPM_P2
2024/01/28 00:02:26;;;;;;;;;49.00;42.33;;;;;;;;5089043;28;8793;-82
2024/01/28 00:04:53;;;;;;;;;31.33;26.33;;;;;;;;5097051;28;8856;-82
2024/01/28 00:07:21;;;;;;;;;52.67;41.33;;;;;;;;5085441;28;8963;-84
2024/01/28 00:09:48;;;;;;;;;53.33;45.00;;;;;;;;5070812;28;8920;-84
2024/01/28 00:12:15;;;;;;;;;46.33;42.67;;;;;;;;5072596;28;8864;-85
2024/01/28 00:14:44;;;;;;;;;59.00;49.00;;;;;;;;5071584;28;8836;-85
2024/01/28 00:17:11;;;;;;;;;51.67;42.67;;;;;;;;5069520;28;8848;-85
2024/01/28 00:19:40;;;;;;;;;55.00;46.33;;;;;;;;5069093;28;8906;-85
2024/01/28 00:22:07;;;;;;;;;54.00;46.67;;;;;;;;5070298;28;8872;-85
2024/01/28 00:24:35;;;;;;;;;51.33;43.67;;;;;;;;5070359;28;8965;-83
2024/01/28 00:27:02;;;;;;;;;50.67;42.00;;;;;;;;5067608;28;8868;-80
2024/01/28 00:29:29;;;;;;;;;50.00;41.33;;;;;;;;5067806;28;8868;-82
2024/01/28 00:31:57;;;;;;;;;48.67;41.67;;;;;;;;5068158;28;8807;-83
2024/01/28 00:34:25;;;;;;;;;51.33;42.33;;;;;;;;5067834;28;8864;-82
2024/01/28 00:36:54;;;;;;;;;50.00;39.00;;;;;;;;5067531;28;8981;-83
2024/01/28 00:39:21;;;;;;;;;41.00;39.67;;;;;;;;5067322;28;9032;-84
2024/01/28 00:41:49;;;;;;;;;45.00;41.00;;;;;;;;5066085;28;8957;-84
2024/01/28 00:44:16;;;;;;;;;46.33;38.67;;;;;;;;5069970;28;8859;-82
2024/01/28 00:46:43;;;;;;;;;47.00;41.67;;;;;;;;5069924;28;8836;-83
2024/01/28 00:49:11;;;;;;;;;45.67;38.00;;;;;;;;5070611;28;8876;-83
2024/01/28 00:51:38;;;;;;;;;53.33;43.67;;;;;;;;5069507;28;8852;-82
2024/01/28 00:54:08;;;;;;;;;42.67;36.00;;;;;;;;5070173;28;8879;-83
2024/01/28 00:56:36;;;;;;;;;43.33;39.67;;;;;;;;5071695;28;8876;-82
2024/01/28 00:59:03;;;;;;;;;30.33;30.33;;;;;;;;5071968;28;8971;-84
2024/01/28 01:01:30;;;;;;;;;41.00;35.00;;;;;;;;5072664;28;8952;-84
2024/01/28 01:03:57;;;;;;;;;32.33;29.67;;;;;;;;5076469;28;8971;-82
2024/01/28 01:06:25;;;;;;;;;36.33;33.33;;;;;;;;5072199;28;8959;-82
2024/01/28 01:08:52;;;;;;;;;26.33;23.67;;;;;;;;5075033;28;9251;-82
2024/01/28 01:11:20;;;;;;;;;19.67;18.67;;;;;;;;5066284;28;8868;-83
2024/01/28 01:13:48;;;;;;;;;23.00;18.00;;;;;;;;5080813;28;11540;-83
2024/01/28 01:16:15;;;;;;;;;19.67;17.67;;;;;;;;5094510;28;11548;-85
2024/01/28 01:18:42;;;;;;;;;22.33;20.33;;;;;;;;5070112;28;11639;-83
2024/01/28 01:21:10;;;;;;;;;20.33;17.33;;;;;;;;5067168;28;11618;-83
2024/01/28 01:23:37;;;;;;;;;18.67;18.33;;;;;;;;5069721;28;11566;-83
2024/01/28 01:26:04;;;;;;;;;25.00;18.00;;;;;;;;5069443;28;11588;-84
2024/01/28 01:28:33;;;;;;;;;23.33;21.67;;;;;;;;5069223;28;11545;-81
2024/01/28 01:31:02;;;;;;;;;21.67;21.67;;;;;;;;5063863;28;11518;-82
2024/01/28 01:33:32;;;;;;;;;20.00;20.00;;;;;;;;5059735;28;11523;-83
2024/01/28 01:36:01;;;;;;;;;18.00;15.00;;;;;;;;5070072;28;12171;-84
2024/01/28 01:38:28;;;;;;;;;22.00;17.33;;;;;;;;5067396;28;11577;-82
2024/01/28 01:40:56;;;;;;;;;16.67;14.67;;;;;;;;5070446;28;12349;-81
2024/01/28 01:43:24;;;;;;;;;23.33;18.67;;;;;;;;5071062;28;11519;-84
2024/01/28 01:45:53;;;;;;;;;18.33;15.67;;;;;;;;5072005;28;11529;-84
2024/01/28 01:48:20;;;;;;;;;16.00;15.33;;;;;;;;5058583;28;11541;-84
2024/01/28 01:50:48;;;;;;;;;13.67;13.67;;;;;;;;5058409;28;11654;-84
2024/01/28 01:53:16;;;;;;;;;17.33;15.00;;;;;;;;5066704;28;11528;-84
2024/01/28 01:55:44;;;;;;;;;20.67;16.67;;;;;;;;5068898;28;11537;-84
2024/01/28 01:58:12;;;;;;;;;15.00;15.00;;;;;;;;5068702;28;11549;-83
2024/01/28 02:00:40;;;;;;;;;23.33;18.00;;;;;;;;5068952;28;11443;-83
2024/01/28 02:03:09;;;;;;;;;20.00;18.67;;;;;;;;5067870;28;8856;-83
2024/01/28 02:05:36;;;;;;;;;15.33;15.33;;;;;;;;5073044;28;11561;-84
2024/01/28 02:08:04;;;;;;;;;14.67;14.67;;;;;;;;5071820;28;11663;-83
2024/01/28 02:10:31;;;;;;;;;19.00;17.00;;;;;;;;5072017;28;11532;-82
2024/01/28 02:13:01;;;;;;;;;15.67;14.33;;;;;;;;5072830;28;11535;-81
2024/01/28 02:15:28;;;;;;;;;12.75;12.75;;;;;;;;5069909;28;11667;-83
2024/01/28 02:17:56;;;;;;;;;11.00;11.00;;;;;;;;5066798;28;11568;-82
2024/01/28 02:20:24;;;;;;;;;15.75;13.00;;;;;;;;5072405;28;11554;-83
2024/01/28 02:22:52;;;;;;;;;13.75;13.75;;;;;;;;5071912;28;11612;-84
2024/01/28 02:25:21;;;;;;;;;14.75;13.00;;;;;;;;5061369;28;11522;-81
2024/01/28 02:27:49;;;;;;;;;12.75;12.50;;;;;;;;5070320;28;11521;-82
2024/01/28 02:30:16;;;;;;;;;18.75;13.75;;;;;;;;5071842;28;11543;-81
2024/01/28 02:32:50;;;;;;;;;17.00;13.33;;;;;;;;5072599;28;11522;-83
2024/01/28 02:35:17;;;;;;;;;16.33;16.33;;;;;;;;5072791;28;11531;-81
2024/01/28 02:37:45;;;;;;;;;13.67;13.00;;;;;;;;5070948;28;11529;-82
2024/01/28 02:40:13;;;;;;;;;14.00;14.00;;;;;;;;5072162;28;11586;-83
2024/01/28 02:42:42;;;;;;;;;20.00;15.67;;;;;;;;5073596;28;11522;-83
2024/01/28 02:45:10;;;;;;;;;13.67;11.00;;;;;;;;5075534;28;11633;-83
2024/01/28 02:47:37;;;;;;;;;13.75;12.25;;;;;;;;5073914;28;11670;-81
2024/01/28 02:50:05;;;;;;;;;13.67;13.00;;;;;;;;5076496;28;11509;-82
2024/01/28 02:52:32;;;;;;;;;20.67;13.67;;;;;;;;5076148;28;11501;-81
2024/01/28 02:54:59;;;;;;;;;9.67;9.00;;;;;;;;5074577;28;11554;-83
2024/01/28 02:57:27;;;;;;;;;22.00;17.67;;;;;;;;5072894;28;11516;-85
2024/01/28 02:59:57;;;;;;;;;12.33;12.33;;;;;;;;5071012;28;11589;-84
2024/01/28 03:02:24;;;;;;;;;15.00;13.67;;;;;;;;5071037;28;11514;-82
2024/01/28 03:04:52;;;;;;;;;15.67;13.67;;;;;;;;5072040;28;11530;-84
2024/01/28 03:07:19;;;;;;;;;19.33;18.67;;;;;;;;5069725;28;11569;-84
2024/01/28 03:09:46;;;;;;;;;9.67;9.67;;;;;;;;5070195;28;11630;-83
2024/01/28 03:12:13;;;;;;;;;11.33;11.33;;;;;;;;5068791;28;11646;-81
2024/01/28 03:14:40;;;;;;;;;17.67;17.67;;;;;;;;5071508;28;11598;-83
2024/01/28 03:17:09;;;;;;;;;14.33;14.33;;;;;;;;5068087;28;8979;-83
2024/01/28 03:19:36;;;;;;;;;13.00;11.67;;;;;;;;5071463;28;8967;-82
2024/01/28 03:22:04;;;;;;;;;14.33;14.33;;;;;;;;5071573;28;11591;-83
2024/01/28 03:24:31;;;;;;;;;14.33;14.33;;;;;;;;5070987;28;12342;-83
2024/01/28 03:26:58;;;;;;;;;13.00;13.00;;;;;;;;5072894;28;12508;-83
2024/01/28 03:29:26;;;;;;;;;12.25;12.00;;;;;;;;5073015;28;11512;-83
2024/01/28 03:31:53;;;;;;;;;19.00;17.00;;;;;;;;5071040;28;11493;-83
2024/01/28 03:34:22;;;;;;;;;13.00;10.00;;;;;;;;5069587;28;11531;-82
2024/01/28 03:36:50;;;;;;;;;19.33;18.00;;;;;;;;5067918;28;11548;-83
2024/01/28 03:39:18;;;;;;;;;16.00;13.00;;;;;;;;5065579;28;11553;-84
2024/01/28 03:41:45;;;;;;;;;16.00;14.00;;;;;;;;5071574;28;11481;-83
2024/01/28 03:44:15;;;;;;;;;18.33;14.67;;;;;;;;5071622;28;11508;-83
2024/01/28 03:46:42;;;;;;;;;14.67;11.00;;;;;;;;5070593;28;11528;-83
2024/01/28 03:49:09;;;;;;;;;9.00;9.00;;;;;;;;5069517;28;11522;-83
2024/01/28 03:51:38;;;;;;;;;16.00;14.33;;;;;;;;5071541;28;11653;-83
2024/01/28 03:54:05;;;;;;;;;13.33;13.33;;;;;;;;5071387;28;11711;-83
2024/01/28 03:56:34;;;;;;;;;16.33;13.33;;;;;;;;5070703;28;11650;-84
2024/01/28 03:59:01;;;;;;;;;12.67;12.67;;;;;;;;5069696;28;11569;-81
2024/01/28 04:01:32;;;;;;;;;12.33;12.33;;;;;;;;5070453;28;11608;-84
2024/01/28 04:03:59;;;;;;;;;12.67;12.00;;;;;;;;5070440;28;11709;-83
2024/01/28 04:06:27;;;;;;;;;17.33;14.33;;;;;;;;5071499;28;11499;-83
2024/01/28 04:08:56;;;;;;;;;16.67;15.67;;;;;;;;5067418;28;12309;-81
2024/01/28 04:11:27;;;;;;;;;7.00;7.00;;;;;;;;5071162;28;11545;-83
2024/01/28 04:13:56;;;;;;;;;12.00;12.00;;;;;;;;5068020;28;11515;-84
2024/01/28 04:16:23;;;;;;;;;12.00;12.00;;;;;;;;5070864;28;11531;-84
2024/01/28 04:18:51;;;;;;;;;13.33;11.00;;;;;;;;5075277;28;11509;-83
2024/01/28 04:21:18;;;;;;;;;15.33;14.00;;;;;;;;5090991;28;11521;-81
2024/01/28 04:23:46;;;;;;;;;11.33;11.33;;;;;;;;5084517;28;11673;-81
2024/01/28 04:26:15;;;;;;;;;18.00;18.00;;;;;;;;5073574;28;11649;-82
2024/01/28 04:28:42;;;;;;;;;16.00;15.00;;;;;;;;5069036;28;11546;-82
2024/01/28 04:31:10;;;;;;;;;15.00;15.00;;;;;;;;5070897;28;11625;-81
2024/01/28 04:33:37;;;;;;;;;18.00;15.67;;;;;;;;5075719;28;11545;-82
2024/01/28 04:36:05;;;;;;;;;10.33;10.33;;;;;;;;5076645;28;11590;-81
2024/01/28 04:38:33;;;;;;;;;17.33;14.67;;;;;;;;5067498;28;11488;-82
2024/01/28 04:41:01;;;;;;;;;17.33;15.00;;;;;;;;5082029;28;11912;-82
2024/01/28 04:43:30;;;;;;;;;22.33;16.00;;;;;;;;5066379;28;11600;-83
2024/01/28 04:45:58;;;;;;;;;15.00;15.00;;;;;;;;5069747;28;11539;-83
2024/01/28 04:48:25;;;;;;;;;14.67;14.00;;;;;;;;5055021;28;11520;-83
2024/01/28 04:50:53;;;;;;;;;16.00;12.33;;;;;;;;5068779;28;11597;-84
2024/01/28 04:53:20;;;;;;;;;19.00;15.00;;;;;;;;5055335;28;11699;-84
2024/01/28 04:55:47;;;;;;;;;14.67;13.00;;;;;;;;5056737;28;11672;-83
2024/01/28 04:58:14;;;;;;;;;11.67;10.33;;;;;;;;5053327;28;11632;-85
2024/01/28 05:00:43;;;;;;;;;14.00;14.00;;;;;;;;5055576;28;12307;-84
2024/01/28 05:03:11;;;;;;;;;18.67;14.00;;;;;;;;5061016;28;12294;-83
2024/01/28 05:05:38;;;;;;;;;17.33;13.00;;;;;;;;5064652;28;11667;-84
2024/01/28 05:08:09;;;;;;;;;15.00;15.00;;;;;;;;5054275;28;11549;-84
2024/01/28 05:10:36;;;;;;;;;13.00;13.00;;;;;;;;5059734;28;11560;-83
2024/01/28 05:13:03;;;;;;;;;19.00;18.67;;;;;;;;5071598;28;11625;-84
2024/01/28 05:15:31;;;;;;;;;18.00;17.33;;;;;;;;5072018;28;8975;-83
2024/01/28 05:17:59;;;;;;;;;19.00;19.00;;;;;;;;5061036;28;8851;-83
2024/01/28 05:20:27;;;;;;;;;16.33;14.67;;;;;;;;5066676;28;8858;-83
2024/01/28 05:22:54;;;;;;;;;21.33;17.33;;;;;;;;5060650;28;8852;-81
2024/01/28 05:25:21;;;;;;;;;17.67;15.00;;;;;;;;5066582;28;11515;-84
2024/01/28 05:27:56;;;;;;;;;17.33;15.00;;;;;;;;5066127;28;11535;-84
2024/01/28 05:30:23;;;;;;;;;20.00;18.00;;;;;;;;5068940;28;8760;-83
2024/01/28 05:32:51;;;;;;;;;14.67;14.00;;;;;;;;5067777;28;8999;-84
2024/01/28 05:35:19;;;;;;;;;18.00;18.00;;;;;;;;5055458;28;8872;-84
2024/01/28 05:37:47;;;;;;;;;15.33;15.33;;;;;;;;5063529;28;8845;-83
2024/01/28 05:40:14;;;;;;;;;16.00;13.00;;;;;;;;5053685;28;8889;-83
2024/01/28 05:42:42;;;;;;;;;22.00;16.00;;;;;;;;5066461;28;9007;-82
2024/01/28 05:45:10;;;;;;;;;11.00;11.00;;;;;;;;5069608;28;8856;-84
2024/01/28 05:47:37;;;;;;;;;18.33;15.67;;;;;;;;5068361;28;8860;-82
2024/01/28 05:50:05;;;;;;;;;10.67;10.67;;;;;;;;5068699;28;8852;-84
2024/01/28 05:52:34;;;;;;;;;20.00;13.33;;;;;;;;5067544;28;8949;-83
2024/01/28 05:55:01;;;;;;;;;10.33;10.33;;;;;;;;5068969;28;8863;-84
2024/01/28 05:57:28;;;;;;;;;14.67;13.00;;;;;;;;5069401;28;8846;-84
2024/01/28 05:59:55;;;;;;;;;10.00;10.00;;;;;;;;5069205;28;8856;-83
2024/01/28 06:02:23;;;;;;;;;12.00;12.00;;;;;;;;5068134;28;8816;-83
2024/01/28 06:04:50;;;;;;;;;14.00;13.00;;;;;;;;5068336;28;8899;-82
2024/01/28 06:07:17;;;;;;;;;10.00;10.00;;;;;;;;5068947;28;8860;-82
2024/01/28 06:09:46;;;;;;;;;16.67;15.33;;;;;;;;5069320;28;8863;-82
2024/01/28 06:12:14;;;;;;;;;14.00;14.00;;;;;;;;5068840;28;9043;-82
2024/01/28 06:14:42;;;;;;;;;16.00;14.00;;;;;;;;5071336;28;8974;-81
2024/01/28 06:17:09;;;;;;;;;17.67;15.00;;;;;;;;5071683;28;8852;-82
2024/01/28 06:19:36;;;;;;;;;15.00;14.00;;;;;;;;5071555;28;8882;-83
2024/01/28 06:22:04;;;;;;;;;18.33;17.00;;;;;;;;5072819;28;8911;-81
2024/01/28 06:24:32;;;;;;;;;17.33;14.00;;;;;;;;5072861;28;8864;-84
2024/01/28 06:27:00;;;;;;;;;17.67;15.67;;;;;;;;5062190;28;8868;-82
2024/01/28 06:29:28;;;;;;;;;13.00;13.00;;;;;;;;5073205;28;8898;-84
2024/01/28 06:31:55;;;;;;;;;17.00;14.67;;;;;;;;5070547;28;8829;-85
2024/01/28 06:34:22;;;;;;;;;12.33;12.33;;;;;;;;5068424;28;8945;-84
2024/01/28 06:36:51;;;;;;;;;18.00;13.00;;;;;;;;5068094;28;8877;-84
2024/01/28 06:39:18;;;;;;;;;12.33;11.00;;;;;;;;5054997;28;8915;-87
2024/01/28 06:41:47;;;;;;;;;7.00;7.00;;;;;;;;5059145;28;8839;-85
2024/01/28 06:44:16;;;;;;;;;13.00;13.00;;;;;;;;5063766;28;8971;-85
2024/01/28 06:46:44;;;;;;;;;11.00;11.00;;;;;;;;5068388;28;8860;-84
2024/01/28 06:49:15;;;;;;;;;12.33;12.33;;;;;;;;5066059;28;8864;-84
2024/01/28 06:51:42;;;;;;;;;11.67;8.67;;;;;;;;5070075;28;8870;-84
2024/01/28 06:54:10;;;;;;;;;12.33;11.33;;;;;;;;5071736;28;8861;-84
2024/01/28 06:56:38;;;;;;;;;14.67;11.67;;;;;;;;5070855;28;8898;-82
2024/01/28 06:59:05;;;;;;;;;16.00;12.33;;;;;;;;5071491;28;8998;-84
2024/01/28 07:01:34;;;;;;;;;20.33;17.00;;;;;;;;5073150;28;8796;-83
2024/01/28 07:04:01;;;;;;;;;20.00;20.00;;;;;;;;5073617;28;8930;-83
2024/01/28 07:06:28;;;;;;;;;15.00;15.00;;;;;;;;5074921;28;8937;-81
2024/01/28 07:08:56;;;;;;;;;20.33;16.67;;;;;;;;5072152;28;8865;-83
2024/01/28 07:11:25;;;;;;;;;15.67;15.67;;;;;;;;5071468;28;8857;-84
2024/01/28 07:13:55;;;;;;;;;18.00;13.67;;;;;;;;5069605;28;8843;-81
2024/01/28 07:16:22;;;;;;;;;19.67;16.67;;;;;;;;5071640;28;8895;-85
2024/01/28 07:18:52;;;;;;;;;24.67;21.00;;;;;;;;5071373;28;8864;-82
2024/01/28 07:21:19;;;;;;;;;19.33;18.33;;;;;;;;5071293;28;8861;-83
2024/01/28 07:23:46;;;;;;;;;24.33;21.67;;;;;;;;5073057;28;8844;-84
2024/01/28 07:26:14;;;;;;;;;17.33;15.00;;;;;;;;5072729;28;8849;-83
2024/01/28 07:28:42;;;;;;;;;25.33;25.00;;;;;;;;5086083;28;8959;-84
2024/01/28 07:31:09;;;;;;;;;29.67;22.00;;;;;;;;5090615;28;8815;-83
2024/01/28 07:33:36;;;;;;;;;22.00;20.00;;;;;;;;5081018;28;8887;-84
2024/01/28 07:36:08;;;;;;;;;23.67;21.67;;;;;;;;5073427;28;8876;-85
2024/01/28 07:38:37;;;;;;;;;25.33;24.33;;;;;;;;5070535;28;8941;-77
2024/01/28 07:41:04;;;;;;;;;21.00;21.00;;;;;;;;5070478;28;8852;-79
2024/01/28 07:43:31;;;;;;;;;18.00;18.00;;;;;;;;5075669;28;8836;-74
2024/01/28 07:45:58;;;;;;;;;33.33;26.67;;;;;;;;5065950;28;8846;-73
2024/01/28 07:48:26;;;;;;;;;30.67;27.33;;;;;;;;5063337;28;8856;-72
2024/01/28 07:50:55;;;;;;;;;31.00;27.67;;;;;;;;5054644;28;8985;-72
2024/01/28 07:53:23;;;;;;;;;37.00;34.00;;;;;;;;5064289;28;8955;-75
2024/01/28 07:55:50;;;;;;;;;39.00;37.00;;;;;;;;5053699;28;8851;-72
2024/01/28 07:58:17;;;;;;;;;31.67;28.33;;;;;;;;5064432;28;8890;-75
2024/01/28 08:00:45;;;;;;;;;42.00;35.33;;;;;;;;5064968;28;8941;-79
2024/01/28 08:03:12;;;;;;;;;36.33;33.67;;;;;;;;5064535;28;8864;-76
2024/01/28 08:05:40;;;;;;;;;37.33;34.00;;;;;;;;5071559;28;8840;-79
2024/01/28 08:08:08;;;;;;;;;44.00;36.33;;;;;;;;5062231;28;8858;-80
2024/01/28 08:10:37;;;;;;;;;34.33;30.67;;;;;;;;5074937;28;8856;-82
2024/01/28 08:13:04;;;;;;;;;41.00;36.00;;;;;;;;5074496;28;8864;-79
2024/01/28 08:15:31;;;;;;;;;37.67;37.00;;;;;;;;5055140;28;8842;-75
2024/01/28 08:17:58;;;;;;;;;39.33;32.67;;;;;;;;5065225;28;9476;-84
2024/01/28 08:20:26;;;;;;;;;50.33;37.33;;;;;;;;5061167;28;8981;-82
2024/01/28 08:22:53;;;;;;;;;44.33;40.33;;;;;;;;5067075;28;8860;-74
2024/01/28 08:25:21;;;;;;;;;42.67;40.33;;;;;;;;5069082;28;8848;-73
2024/01/28 08:27:49;;;;;;;;;42.67;37.33;;;;;;;;5069083;28;8983;-73
2024/01/28 08:30:22;;;;;;;;;52.67;43.00;;;;;;;;5068246;28;8959;-78
2024/01/28 08:32:49;;;;;;;;;30.67;30.67;;;;;;;;5069007;28;8910;-74
2024/01/28 08:35:18;;;;;;;;;52.00;43.00;;;;;;;;5068716;28;8950;-74
2024/01/28 08:37:45;;;;;;;;;43.33;39.33;;;;;;;;5068704;28;8844;-79
2024/01/28 08:40:12;;;;;;;;;41.00;36.33;;;;;;;;5068167;28;8836;-76
2024/01/28 08:42:39;;;;;;;;;38.00;35.00;;;;;;;;5056550;28;8852;-74
2024/01/28 08:45:09;;;;;;;;;49.00;39.67;;;;;;;;5069144;28;8890;-74
2024/01/28 08:47:36;;;;;;;;;53.00;43.67;;;;;;;;5068181;28;8867;-74
2024/01/28 08:50:04;;;;;;;;;42.67;39.67;;;;;;;;5068748;28;8893;-77
2024/01/28 08:52:31;;;;;;;;;60.00;46.67;;;;;;;;5068428;28;8847;-74
2024/01/28 08:55:01;;;;;;;;;59.67;47.67;;;;;;;;5067301;28;8889;-74
2024/01/28 08:57:28;;;;;;;;;61.00;49.00;;;;;;;;5068436;28;8868;-76
2024/01/28 08:59:55;;;;;;;;;58.00;48.67;;;;;;;;5068112;28;8995;-74
2024/01/28 09:02:24;;;;;;;;;49.00;43.00;;;;;;;;5067863;28;8963;-77
2024/01/28 09:04:52;;;;;;;;;39.67;36.00;;;;;;;;5066469;28;8867;-77
2024/01/28 09:07:19;;;;;;;;;49.33;41.33;;;;;;;;5063252;28;9599;-80
2024/01/28 09:09:47;;;;;;;;;51.67;43.00;;;;;;;;5066582;28;8856;-79
2024/01/28 09:12:14;;;;;;;;;52.33;43.00;;;;;;;;5068872;28;8884;-74
2024/01/28 09:14:41;;;;;;;;;63.00;51.67;;;;;;;;5065850;28;8850;-77
2024/01/28 09:17:11;;;;;;;;;56.33;48.00;;;;;;;;5068283;28;8848;-73
2024/01/28 09:19:41;;;;;;;;;68.67;54.67;;;;;;;;5068421;28;8878;-76
2024/01/28 09:22:11;;;;;;;;;63.00;49.67;;;;;;;;5065926;28;8958;-74
2024/01/28 09:24:41;;;;;;;;;53.67;45.00;;;;;;;;5066973;28;8895;-73
2024/01/28 09:27:10;;;;;;;;;43.00;39.67;;;;;;;;5068475;28;8832;-75
2024/01/28 09:29:58;;;;;;;;;39.50;37.75;;;;;;;;5063545;28;11543;-75
2024/01/28 09:32:25;;;;;;;;;39.25;32.75;;;;;;;;5061093;28;11629;-73
2024/01/28 09:34:54;;;;;;;;;41.50;34.25;;;;;;;;5067290;28;11545;-72
2024/01/28 09:37:21;;;;;;;;;39.00;37.00;;;;;;;;5061127;28;11576;-74
2024/01/28 09:39:48;;;;;;;;;38.00;36.00;;;;;;;;5066927;28;11543;-75
2024/01/28 09:42:21;;;;;;;;;36.75;34.50;;;;;;;;5055836;28;12344;-73
2024/01/28 09:44:49;;;;;;;;;33.25;33.25;;;;;;;;5066761;28;11544;-74
2024/01/28 09:47:19;;;;;;;;;29.00;26.50;;;;;;;;5066954;28;11554;-74
2024/01/28 09:49:47;;;;;;;;;42.25;37.00;;;;;;;;5068198;28;11578;-74
2024/01/28 09:52:17;;;;;;;;;46.50;43.00;;;;;;;;5066380;28;11583;-74
2024/01/28 09:54:45;;;;;;;;;47.00;40.25;;;;;;;;5067331;28;11588;-75
2024/01/28 09:57:24;;;;;;;;;60.75;49.75;;;;;;;;5064953;28;11549;-76
2024/01/28 10:00:00;;;;;;;;;58.75;49.75;;;;;;;;5068162;28;11536;-75
2024/01/28 10:02:28;;;;;;;;;63.50;51.75;;;;;;;;5051987;28;11652;-74
2024/01/28 10:04:59;;;;;;;;;51.25;44.50;;;;;;;;5064448;28;11665;-74
2024/01/28 10:07:28;;;;;;;;;48.00;42.25;;;;;;;;5066216;28;11547;-76
2024/01/28 10:09:55;;;;;;;;;31.25;29.00;;;;;;;;5068497;28;11676;-74
2024/01/28 10:12:22;;;;;;;;;29.00;24.75;;;;;;;;5066579;28;11574;-72
2024/01/28 10:14:52;;;;;;;;;20.25;20.25;;;;;;;;5067193;28;11556;-74
2024/01/28 10:17:22;;;;;;;;;31.50;27.50;;;;;;;;5067605;28;11532;-74
2024/01/28 10:20:01;;;;;;;;;24.75;21.00;;;;;;;;5067783;28;12164;-73
2024/01/28 10:22:35;;;;;;;;;22.00;19.75;;;;;;;;5067566;28;11652;-72
2024/01/28 10:25:03;;;;;;;;;23.00;22.50;;;;;;;;5064518;28;11638;-72
2024/01/28 10:27:33;;;;;;;;;27.75;26.25;;;;;;;;5072298;28;11662;-74
2024/01/28 10:30:00;;;;;;;;;32.50;30.75;;;;;;;;5071880;28;11658;-72
2024/01/28 10:32:28;;;;;;;;;47.50;41.00;;;;;;;;5072225;28;11631;-71
2024/01/28 10:34:57;;;;;;;;;33.25;33.25;;;;;;;;5069452;28;11699;-71
2024/01/28 10:37:25;;;;;;;;;21.75;21.25;;;;;;;;5072682;28;11552;-70
2024/01/28 10:39:58;;;;;;;;;21.25;18.75;;;;;;;;5070058;28;11541;-72
2024/01/28 10:42:35;;;;;;;;;24.00;24.00;;;;;;;;5068843;28;11575;-71
2024/01/28 10:45:27;;;;;;;;;24.75;23.25;;;;;;;;5060706;28;11576;-72
2024/01/28 10:47:56;;;;;;;;;23.75;23.75;;;;;;;;5023115;28;11550;-70
2024/01/28 10:50:30;;;;;;;;;26.00;26.00;;;;;;;;5070999;28;11671;-73
2024/01/28 10:52:58;;;;;;;;;27.75;25.25;;;;;;;;5057778;28;11640;-72
2024/01/28 10:55:28;;;;;;;;;23.25;22.50;;;;;;;;5068992;28;11661;-72
2024/01/28 10:58:02;;;;;;;;;24.25;21.50;;;;;;;;5070882;28;11487;-74
2024/01/28 11:00:30;;;;;;;;;34.00;26.00;;;;;;;;5056872;28;12329;-73
2024/01/28 11:03:02;;;;;;;;;26.75;25.00;;;;;;;;5050077;28;11489;-72
2024/01/28 11:05:43;;;;;;;;;26.25;24.50;;;;;;;;5066980;28;11574;-73
2024/01/28 11:08:11;;;;;;;;;25.75;21.50;;;;;;;;5061424;28;11622;-75
2024/01/28 11:10:47;;;;;;;;;22.25;21.00;;;;;;;;5068514;28;11519;-72
2024/01/28 11:13:35;;;;;;;;;26.00;23.00;;;;;;;;5064657;28;11564;-72
2024/01/28 11:16:02;;;;;;;;;28.75;25.75;;;;;;;;5061540;28;11615;-72
2024/01/28 11:18:29;;;;;;;;;20.00;17.00;;;;;;;;5070433;28;11619;-73
2024/01/28 11:21:01;;;;;;;;;22.50;17.00;;;;;;;;5077232;28;11472;-75
2024/01/28 11:23:31;;;;;;;;;22.00;21.25;;;;;;;;5061841;28;11436;-75
2024/01/28 11:26:01;;;;;;;;;27.00;25.25;;;;;;;;5077429;28;11605;-75
2024/01/28 11:28:28;;;;;;;;;25.75;25.25;;;;;;;;5066622;28;11583;-71
2024/01/28 11:30:59;;;;;;;;;35.75;33.50;;;;;;;;5059103;28;11449;-74
2024/01/28 11:33:26;;;;;;;;;30.00;26.00;;;;;;;;5056813;28;11493;-72
2024/01/28 11:35:54;;;;;;;;;35.25;33.75;;;;;;;;5069348;28;11507;-73
2024/01/28 11:38:24;;;;;;;;;23.00;23.00;;;;;;;;5069221;28;11490;-72
2024/01/28 11:40:59;;;;;;;;;27.50;27.00;;;;;;;;5069888;28;12281;-73
2024/01/28 11:43:26;;;;;;;;;26.50;25.25;;;;;;;;5071237;28;11643;-73
2024/01/28 11:45:54;;;;;;;;;17.25;17.00;;;;;;;;5071548;28;11270;-74
2024/01/28 11:48:21;;;;;;;;;23.25;17.25;;;;;;;;5071905;28;11188;-76
2024/01/28 11:50:48;;;;;;;;;21.00;17.50;;;;;;;;5069806;28;10954;-72
2024/01/28 11:53:16;;;;;;;;;16.00;16.00;;;;;;;;5072233;28;10794;-73
2024/01/28 11:55:43;;;;;;;;;16.50;15.75;;;;;;;;5072103;28;10924;-72
2024/01/28 11:58:13;;;;;;;;;12.00;12.00;;;;;;;;5072254;28;10874;-73
2024/01/28 12:00:42;;;;;;;;;34.75;31.50;;;;;;;;5065070;28;10506;-72
2024/01/28 12:03:09;;;;;;;;;27.25;25.25;;;;;;;;5067052;28;11305;-72
2024/01/28 12:05:38;;;;;;;;;25.75;23.50;;;;;;;;5066871;28;11227;-73
2024/01/28 12:08:07;;;;;;;;;24.25;22.50;;;;;;;;5066750;28;10968;-77
2024/01/28 12:10:34;;;;;;;;;20.00;18.50;;;;;;;;5069277;28;10795;-72
2024/01/28 12:13:02;;;;;;;;;38.00;30.25;;;;;;;;5069052;28;11036;-71
2024/01/28 12:15:33;;;;;;;;;31.00;29.50;;;;;;;;5063434;28;11322;-71
2024/01/28 12:18:01;;;;;;;;;23.75;21.00;;;;;;;;5058520;28;10958;-74
2024/01/28 12:20:31;;;;;;;;;21.50;19.75;;;;;;;;5067836;28;10737;-72
2024/01/28 12:22:59;;;;;;;;;26.75;22.25;;;;;;;;5057970;28;10597;-72
2024/01/28 12:25:26;;;;;;;;;28.50;27.75;;;;;;;;5067694;28;10494;-71
2024/01/28 12:27:54;;;;;;;;;28.75;28.75;;;;;;;;5062915;28;10555;-71
2024/01/28 12:30:21;;;;;;;;;27.25;20.00;;;;;;;;5067891;28;10675;-71
2024/01/28 12:32:51;;;;;;;;;19.50;15.25;;;;;;;;5068840;28;10654;-71
2024/01/28 12:35:18;;;;;;;;;21.25;19.25;;;;;;;;5066428;28;10319;-75
2024/01/28 12:37:46;;;;;;;;;24.50;23.50;;;;;;;;5057107;28;10170;-71
2024/01/28 12:40:13;;;;;;;;;15.25;15.25;;;;;;;;5062095;28;11243;-71
2024/01/28 12:42:41;;;;;;;;;11.75;11.75;;;;;;;;5053187;28;10854;-74
2024/01/28 12:45:10;;;;;;;;;14.00;13.00;;;;;;;;5068173;28;10319;-74
2024/01/28 12:47:37;;;;;;;;;12.00;12.00;;;;;;;;5066461;28;9963;-72
2024/01/28 12:50:07;;;;;;;;;13.00;13.00;;;;;;;;5065553;28;9777;-72
2024/01/28 12:52:34;;;;;;;;;15.25;13.75;;;;;;;;5063127;28;10563;-72
2024/01/28 12:55:02;;;;;;;;;9.25;9.25;;;;;;;;5068906;28;9637;-72
2024/01/28 12:57:29;;;;;;;;;9.25;9.25;;;;;;;;5068247;28;9618;-73
2024/01/28 12:59:58;;;;;;;;;10.00;9.50;;;;;;;;5067648;28;9507;-74
2024/01/28 13:02:25;;;;;;;;;7.75;7.25;;;;;;;;5068824;28;9438;-70
2024/01/28 13:04:52;;;;;;;;;15.00;11.00;;;;;;;;5066248;28;9611;-72
2024/01/28 13:07:22;;;;;;;;;9.75;9.75;;;;;;;;5067781;28;9468;-73
2024/01/28 13:09:49;;;;;;;;;14.00;12.25;;;;;;;;5067897;28;9548;-72
2024/01/28 13:12:16;;;;;;;;;11.00;11.00;;;;;;;;5066121;28;9626;-74
2024/01/28 13:14:44;;;;;;;;;16.00;13.00;;;;;;;;5065635;28;10171;-72
2024/01/28 13:17:27;;;;;;;;;9.50;9.50;;;;;;;;5072647;28;9736;-75
2024/01/28 13:19:59;;;;;;;;;13.00;10.25;;;;;;;;5072310;28;9695;-73
2024/01/28 13:22:31;;;;;;;;;11.25;11.25;;;;;;;;5063864;28;10226;-73
2024/01/28 13:24:58;;;;;;;;;14.25;13.75;;;;;;;;5069494;28;10259;-74
2024/01/28 13:27:26;;;;;;;;;9.75;9.75;;;;;;;;5068210;28;9910;-72
2024/01/28 13:29:59;;;;;;;;;14.00;12.00;;;;;;;;5066156;28;9526;-74
2024/01/28 13:32:27;;;;;;;;;8.00;8.00;;;;;;;;5067777;28;10324;-74
2024/01/28 13:34:59;;;;;;;;;6.25;6.25;;;;;;;;5065927;28;9716;-74
2024/01/28 13:37:28;;;;;;;;;10.75;10.75;;;;;;;;5065474;28;9671;-73
2024/01/28 13:39:55;;;;;;;;;15.00;14.00;;;;;;;;5065901;28;9760;-75
2024/01/28 13:42:22;;;;;;;;;12.75;12.75;;;;;;;;5056206;28;9784;-73
2024/01/28 13:44:50;;;;;;;;;13.00;11.25;;;;;;;;5068529;28;9784;-75
2024/01/28 13:47:17;;;;;;;;;14.75;13.50;;;;;;;;5068413;28;9836;-72
2024/01/28 13:49:44;;;;;;;;;17.25;14.75;;;;;;;;5069545;28;9638;-72
2024/01/28 13:52:12;;;;;;;;;13.00;11.50;;;;;;;;5067736;28;9783;-72
2024/01/28 13:54:41;;;;;;;;;15.25;14.50;;;;;;;;5069164;28;9687;-71
2024/01/28 13:57:10;;;;;;;;;12.25;11.00;;;;;;;;5065567;28;9611;-74
2024/01/28 13:59:38;;;;;;;;;10.75;10.75;;;;;;;;5051186;28;9531;-72
2024/01/28 14:02:05;;;;;;;;;13.25;12.50;;;;;;;;5065107;28;9394;-71
2024/01/28 14:04:33;;;;;;;;;13.25;13.25;;;;;;;;5066080;28;9559;-71
2024/01/28 14:07:00;;;;;;;;;11.25;10.50;;;;;;;;5062824;28;9513;-73
2024/01/28 14:09:30;;;;;;;;;9.00;9.00;;;;;;;;5053613;28;9580;-75
2024/01/28 14:12:01;;;;;;;;;13.00;10.00;;;;;;;;5062811;28;10238;-72
2024/01/28 14:14:29;;;;;;;;;9.33;9.33;;;;;;;;5067754;28;10304;-71
2024/01/28 14:16:56;;;;;;;;;8.67;8.33;;;;;;;;5066747;28;9427;-74
2024/01/28 14:19:31;;;;;;;;;10.67;10.67;;;;;;;;5067900;28;9390;-72
2024/01/28 14:22:00;;;;;;;;;16.33;10.67;;;;;;;;5068580;28;9393;-73
2024/01/28 14:24:28;;;;;;;;;12.00;12.00;;;;;;;;5050313;28;9323;-73
2024/01/28 14:26:55;;;;;;;;;12.00;9.67;;;;;;;;5063223;28;9499;-72
2024/01/28 14:29:23;;;;;;;;;14.33;11.33;;;;;;;;5044355;28;9430;-72
2024/01/28 14:31:50;;;;;;;;;10.00;10.00;;;;;;;;5066911;28;9467;-74